sensor_id;sensor_type;location;lat;lon;timestamp;temperature;humidity
14993;DHT22;7592;51.088;13.732;2024-02-04T00:02:11;10.20;99.90
14993;DHT22;7592;51.088;13.732;2024-02-04T00:07:06;10.30;99.90
14993;DHT22;7592;51.088;13.732;2024-02-04T00:11:58;10.30;99.90
14993;DHT22;7592;51.088;13.732;2024-02-04T00:16:55;10.30;99.90
14993;DHT22;7592;51.088;13.732;2024-02-04T00:21:47;10.30;99.90
14993;DHT22;7592;51.088;13.732;2024-02-04T00:26:39;10.40;99.90
14993;DHT22;7592;51.088;13.732;2024-02-04T00:31:31;10.30;99.90
14993;DHT22;7592;51.088;13.732;2024-02-04T00:36:23;10.30;99.90
14993;DHT22;7592;51.088;13.732;2024-02-04T00:41:16;10.30;99.90
14993;DHT22;7592;51.088;13.732;2024-02-04T00:46:08;10.20;99.90
14993;DHT22;7592;51.088;13.732;2024-02-04T00:51:02;10.10;99.90
14993;DHT22;7592;51.088;13.732;2024-02-04T00:55:54;10.10;99.90
14993;DHT22;7592;51.088;13.732;2024-02-04T01:00:46;10.20;99.90
14993;DHT22;7592;51.088;13.732;2024-02-04T01:05:38;10.10;99.90
14993;DHT22;7592;51.088;13.732;2024-02-04T01:10:30;9.90;99.90
14993;DHT22;7592;51.088;13.732;2024-02-04T01:15:24;9.90;99.90
14993;DHT22;7592;51.088;13.732;2024-02-04T01:20:18;9.90;99.90
14993;DHT22;7592;51.088;13.732;2024-02-04T01:25:10;9.80;99.90
14993;DHT22;7592;51.088;13.732;2024-02-04T01:30:02;9.70;99.90
14993;DHT22;7592;51.088;13.732;2024-02-04T01:34:56;9.70;99.90
14993;DHT22;7592;51.088;13.732;2024-02-04T01:39:48;9.80;99.90
14993;DHT22;7592;51.088;13.732;2024-02-04T01:44:40;9.70;99.90
14993;DHT22;7592;51.088;13.732;2024-02-04T01:49:34;9.60;99.90
14993;DHT22;7592;51.088;13.732;2024-02-04T01:54:27;9.40;99.90
14993;DHT22;7592;51.088;13.732;2024-02-04T01:59:20;9.20;99.90
14993;DHT22;7592;51.088;13.732;2024-02-04T02:04:13;9.20;99.90
14993;DHT22;7592;51.088;13.732;2024-02-04T02:09:06;9.20;99.90
14993;DHT22;7592;51.088;13.732;2024-02-04T02:14:01;9.20;99.90
14993;DHT22;7592;51.088;13.732;2024-02-04T02:19:03;9.30;99.90
14993;DHT22;7592;51.088;13.732;2024-02-04T02:24:26;9.30;99.90
14993;DHT22;7592;51.088;13.732;2024-02-04T02:29:18;9.50;99.90
14993;DHT22;7592;51.088;13.732;2024-02-04T02:34:12;9.50;99.90
14993;DHT22;7592;51.088;13.732;2024-02-04T02:39:42;9.60;99.90
14993;DHT22;7592;51.088;13.732;2024-02-04T02:44:39;9.70;99.90
14993;DHT22;7592;51.088;13.732;2024-02-04T02:49:31;9.80;99.90
14993;DHT22;7592;51.088;13.732;2024-02-04T02:54:24;9.80;99.90
14993;DHT22;7592;51.088;13.732;2024-02-04T02:59:16;9.90;99.90
14993;DHT22;7592;51.088;13.732;2024-02-04T03:04:08;9.90;99.90
14993;DHT22;7592;51.088;13.732;2024-02-04T03:09:00;9.90;99.90
14993;DHT22;7592;51.088;13.732;2024-02-04T03:13:52;9.90;99.90
14993;DHT22;7592;51.088;13.732;2024-02-04T03:18:46;10.00;99.90
14993;DHT22;7592;51.088;13.732;2024-02-04T03:23:38;10.00;99.90
14993;DHT22;7592;51.088;13.732;2024-02-04T03:28:30;10.00;99.90
14993;DHT22;7592;51.088;13.732;2024-02-04T03:33:22;10.10;99.90
14993;DHT22;7592;51.088;13.732;2024-02-04T03:38:14;10.00;99.90
14993;DHT22;7592;51.088;13.732;2024-02-04T03:43:07;10.00;99.90
14993;DHT22;7592;51.088;13.732;2024-02-04T03:47:59;10.00;99.90
14993;DHT22;7592;51.088;13.732;2024-02-04T03:52:51;10.00;99.90
14993;DHT22;7592;51.088;13.732;2024-02-04T03:57:44;10.00;99.90
14993;DHT22;7592;51.088;13.732;2024-02-04T04:02:36;9.90;99.90
14993;DHT22;7592;51.088;13.732;2024-02-04T04:07:28;9.90;99.90
14993;DHT22;7592;51.088;13.732;2024-02-04T04:12:20;9.90;99.90
14993;DHT22;7592;51.088;13.732;2024-02-04T04:17:13;9.90;99.90
14993;DHT22;7592;51.088;13.732;2024-02-04T04:22:05;9.90;99.90
14993;DHT22;7592;51.088;13.732;2024-02-04T04:26:57;9.90;99.90
14993;DHT22;7592;51.088;13.732;2024-02-04T04:31:49;9.90;99.90
14993;DHT22;7592;51.088;13.732;2024-02-04T04:36:42;9.90;99.90
14993;DHT22;7592;51.088;13.732;2024-02-04T04:41:34;9.80;99.90
14993;DHT22;7592;51.088;13.732;2024-02-04T04:46:26;9.90;99.90
14993;DHT22;7592;51.088;13.732;2024-02-04T04:51:18;9.90;99.90
14993;DHT22;7592;51.088;13.732;2024-02-04T04:56:10;9.90;99.90
14993;DHT22;7592;51.088;13.732;2024-02-04T05:01:02;10.00;99.90
14993;DHT22;7592;51.088;13.732;2024-02-04T05:05:54;10.00;99.90
14993;DHT22;7592;51.088;13.732;2024-02-04T05:10:46;9.90;99.90
14993;DHT22;7592;51.088;13.732;2024-02-04T05:15:39;9.60;99.90
14993;DHT22;7592;51.088;13.732;2024-02-04T05:20:33;9.40;99.90
14993;DHT22;7592;51.088;13.732;2024-02-04T05:25:26;9.50;99.90
14993;DHT22;7592;51.088;13.732;2024-02-04T05:30:18;9.60;99.90
14993;DHT22;7592;51.088;13.732;2024-02-04T05:35:11;9.80;99.90
14993;DHT22;7592;51.088;13.732;2024-02-04T05:40:03;9.90;99.90
14993;DHT22;7592;51.088;13.732;2024-02-04T05:44:57;9.90;99.90
14993;DHT22;7592;51.088;13.732;2024-02-04T05:49:49;9.90;99.90
14993;DHT22;7592;51.088;13.732;2024-02-04T05:54:41;9.90;99.90
14993;DHT22;7592;51.088;13.732;2024-02-04T05:59:34;9.80;99.90
14993;DHT22;7592;51.088;13.732;2024-02-04T06:04:26;9.70;99.90
14993;DHT22;7592;51.088;13.732;2024-02-04T06:09:18;9.80;99.90
14993;DHT22;7592;51.088;13.732;2024-02-04T06:14:10;9.90;99.90
14993;DHT22;7592;51.088;13.732;2024-02-04T06:19:02;9.90;99.90
14993;DHT22;7592;51.088;13.732;2024-02-04T06:23:55;10.00;99.90
14993;DHT22;7592;51.088;13.732;2024-02-04T06:28:47;10.00;99.90
14993;DHT22;7592;51.088;13.732;2024-02-04T06:33:41;10.00;99.90
14993;DHT22;7592;51.088;13.732;2024-02-04T06:38:33;10.00;99.90
14993;DHT22;7592;51.088;13.732;2024-02-04T06:43:25;10.00;99.90
14993;DHT22;7592;51.088;13.732;2024-02-04T06:48:20;10.00;99.90
14993;DHT22;7592;51.088;13.732;2024-02-04T06:53:13;9.90;99.90
14993;DHT22;7592;51.088;13.732;2024-02-04T06:58:05;9.90;99.90
14993;DHT22;7592;51.088;13.732;2024-02-04T07:02:57;9.90;99.90
14993;DHT22;7592;51.088;13.732;2024-02-04T07:07:50;10.00;99.90
14993;DHT22;7592;51.088;13.732;2024-02-04T07:12:45;10.10;99.90
14993;DHT22;7592;51.088;13.732;2024-02-04T07:17:40;10.20;99.90
14993;DHT22;7592;51.088;13.732;2024-02-04T07:22:32;10.30;99.90
14993;DHT22;7592;51.088;13.732;2024-02-04T07:27:28;10.30;99.90
14993;DHT22;7592;51.088;13.732;2024-02-04T07:32:21;10.40;99.90
14993;DHT22;7592;51.088;13.732;2024-02-04T07:37:13;10.40;99.90
14993;DHT22;7592;51.088;13.732;2024-02-04T07:42:08;10.50;99.90
14993;DHT22;7592;51.088;13.732;2024-02-04T07:47:00;10.60;99.90
14993;DHT22;7592;51.088;13.732;2024-02-04T07:51:54;10.80;99.90
14993;DHT22;7592;51.088;13.732;2024-02-04T07:56:46;11.10;99.90
14993;DHT22;7592;51.088;13.732;2024-02-04T08:01:38;11.30;99.90
14993;DHT22;7592;51.088;13.732;2024-02-04T08:06:30;11.70;99.90
14993;DHT22;7592;51.088;13.732;2024-02-04T08:11:23;12.40;99.90
14993;DHT22;7592;51.088;13.732;2024-02-04T08:16:15;13.20;99.90
14993;DHT22;7592;51.088;13.732;2024-02-04T08:21:07;14.10;99.90
14993;DHT22;7592;51.088;13.732;2024-02-04T08:26:00;14.10;99.90
14993;DHT22;7592;51.088;13.732;2024-02-04T08:30:52;13.70;99.90
14993;DHT22;7592;51.088;13.732;2024-02-04T08:35:44;13.30;99.90
14993;DHT22;7592;51.088;13.732;2024-02-04T08:40:36;13.50;99.90
14993;DHT22;7592;51.088;13.732;2024-02-04T08:45:28;13.40;99.90
14993;DHT22;7592;51.088;13.732;2024-02-04T08:50:21;13.00;99.90
14993;DHT22;7592;51.088;13.732;2024-02-04T08:55:13;12.80;99.90
14993;DHT22;7592;51.088;13.732;2024-02-04T09:00:06;12.90;99.90
14993;DHT22;7592;51.088;13.732;2024-02-04T09:05:04;13.00;99.90
14993;DHT22;7592;51.088;13.732;2024-02-04T09:09:56;13.10;99.90
14993;DHT22;7592;51.088;13.732;2024-02-04T09:14:48;12.80;99.90
14993;DHT22;7592;51.088;13.732;2024-02-04T09:19:40;12.40;99.90
14993;DHT22;7592;51.088;13.732;2024-02-04T09:24:34;12.30;99.90
14993;DHT22;7592;51.088;13.732;2024-02-04T09:29:26;12.30;99.90
14993;DHT22;7592;51.088;13.732;2024-02-04T09:34:18;12.30;99.90
14993;DHT22;7592;51.088;13.732;2024-02-04T09:39:13;12.40;99.90
14993;DHT22;7592;51.088;13.732;2024-02-04T09:44:05;12.50;99.90
14993;DHT22;7592;51.088;13.732;2024-02-04T09:48:58;12.50;99.90
14993;DHT22;7592;51.088;13.732;2024-02-04T09:53:52;12.30;99.90
14993;DHT22;7592;51.088;13.732;2024-02-04T09:58:45;12.30;99.90
14993;DHT22;7592;51.088;13.732;2024-02-04T10:03:38;12.30;99.90
14993;DHT22;7592;51.088;13.732;2024-02-04T10:08:30;12.20;99.90
14993;DHT22;7592;51.088;13.732;2024-02-04T10:13:23;12.10;99.90
14993;DHT22;7592;51.088;13.732;2024-02-04T10:18:17;12.00;99.90
14993;DHT22;7592;51.088;13.732;2024-02-04T10:23:09;12.00;99.90
14993;DHT22;7592;51.088;13.732;2024-02-04T10:28:01;11.80;99.90
14993;DHT22;7592;51.088;13.732;2024-02-04T10:32:54;11.50;99.90
14993;DHT22;7592;51.088;13.732;2024-02-04T10:37:46;11.30;99.90
14993;DHT22;7592;51.088;13.732;2024-02-04T10:42:39;11.20;99.90
14993;DHT22;7592;51.088;13.732;2024-02-04T10:47:38;11.20;99.90
14993;DHT22;7592;51.088;13.732;2024-02-04T10:52:49;11.40;99.90
14993;DHT22;7592;51.088;13.732;2024-02-04T10:57:43;11.40;99.90
14993;DHT22;7592;51.088;13.732;2024-02-04T11:02:36;11.50;99.90
14993;DHT22;7592;51.088;13.732;2024-02-04T11:07:32;11.40;99.90
14993;DHT22;7592;51.088;13.732;2024-02-04T11:12:25;11.50;99.90
14993;DHT22;7592;51.088;13.732;2024-02-04T11:27:57;11.80;99.90
14993;DHT22;7592;51.088;13.732;2024-02-04T11:32:52;11.80;99.90
14993;DHT22;7592;51.088;13.732;2024-02-04T11:37:46;11.90;99.90
14993;DHT22;7592;51.088;13.732;2024-02-04T11:42:38;12.00;99.90
14993;DHT22;7592;51.088;13.732;2024-02-04T11:47:33;11.90;99.90
14993;DHT22;7592;51.088;13.732;2024-02-04T11:52:28;11.90;99.90
14993;DHT22;7592;51.088;13.732;2024-02-04T11:57:20;11.70;99.90
14993;DHT22;7592;51.088;13.732;2024-02-04T12:02:16;11.80;99.90
14993;DHT22;7592;51.088;13.732;2024-02-04T12:07:08;11.80;99.90
14993;DHT22;7592;51.088;13.732;2024-02-04T12:12:02;11.70;99.90
14993;DHT22;7592;51.088;13.732;2024-02-04T12:16:56;11.70;99.90
14993;DHT22;7592;51.088;13.732;2024-02-04T12:21:52;11.80;99.90
14993;DHT22;7592;51.088;13.732;2024-02-04T12:26:47;11.90;99.90
14993;DHT22;7592;51.088;13.732;2024-02-04T12:31:39;12.00;99.90
14993;DHT22;7592;51.088;13.732;2024-02-04T12:36:33;12.10;99.90
14993;DHT22;7592;51.088;13.732;2024-02-04T12:41:27;12.20;99.90
14993;DHT22;7592;51.088;13.732;2024-02-04T12:46:21;12.50;99.90
14993;DHT22;7592;51.088;13.732;2024-02-04T12:51:23;12.60;99.90
14993;DHT22;7592;51.088;13.732;2024-02-04T12:56:15;12.70;99.90
14993;DHT22;7592;51.088;13.732;2024-02-04T13:01:08;12.80;99.90
14993;DHT22;7592;51.088;13.732;2024-02-04T13:06:01;12.70;99.90
14993;DHT22;7592;51.088;13.732;2024-02-04T13:10:54;12.90;99.90
14993;DHT22;7592;51.088;13.732;2024-02-04T13:15:49;13.00;99.90
14993;DHT22;7592;51.088;13.732;2024-02-04T13:20:42;12.90;99.90
14993;DHT22;7592;51.088;13.732;2024-02-04T13:25:34;12.70;99.90
14993;DHT22;7592;51.088;13.732;2024-02-04T13:30:27;12.60;99.90
14993;DHT22;7592;51.088;13.732;2024-02-04T13:35:20;12.50;99.90
14993;DHT22;7592;51.088;13.732;2024-02-04T13:40:14;12.30;99.90
14993;DHT22;7592;51.088;13.732;2024-02-04T13:45:07;12.00;99.90
14993;DHT22;7592;51.088;13.732;2024-02-04T13:50:00;12.00;99.90
14993;DHT22;7592;51.088;13.732;2024-02-04T13:54:53;12.00;99.90
14993;DHT22;7592;51.088;13.732;2024-02-04T13:59:45;12.10;99.90
14993;DHT22;7592;51.088;13.732;2024-02-04T14:04:37;12.10;99.90
14993;DHT22;7592;51.088;13.732;2024-02-04T14:09:29;12.00;99.90
14993;DHT22;7592;51.088;13.732;2024-02-04T14:14:25;11.90;99.90
14993;DHT22;7592;51.088;13.732;2024-02-04T14:19:17;11.90;99.90
14993;DHT22;7592;51.088;13.732;2024-02-04T14:24:09;11.80;99.90
14993;DHT22;7592;51.088;13.732;2024-02-04T14:29:02;11.70;99.90
14993;DHT22;7592;51.088;13.732;2024-02-04T14:33:54;11.60;99.90
14993;DHT22;7592;51.088;13.732;2024-02-04T14:38:46;11.50;99.90
14993;DHT22;7592;51.088;13.732;2024-02-04T14:43:38;11.50;99.90
14993;DHT22;7592;51.088;13.732;2024-02-04T14:48:31;11.40;99.90
14993;DHT22;7592;51.088;13.732;2024-02-04T14:53:23;11.40;99.90
14993;DHT22;7592;51.088;13.732;2024-02-04T14:58:15;11.30;99.90
14993;DHT22;7592;51.088;13.732;2024-02-04T15:03:09;11.30;99.90
14993;DHT22;7592;51.088;13.732;2024-02-04T15:08:01;11.30;99.90
14993;DHT22;7592;51.088;13.732;2024-02-04T15:12:53;11.30;99.90
14993;DHT22;7592;51.088;13.732;2024-02-04T15:17:46;11.30;99.90
14993;DHT22;7592;51.088;13.732;2024-02-04T15:22:40;11.20;99.90
14993;DHT22;7592;51.088;13.732;2024-02-04T15:27:32;11.20;99.90
14993;DHT22;7592;51.088;13.732;2024-02-04T15:32:25;11.20;99.90
14993;DHT22;7592;51.088;13.732;2024-02-04T15:37:18;11.10;99.90
14993;DHT22;7592;51.088;13.732;2024-02-04T15:42:11;11.00;99.90
14993;DHT22;7592;51.088;13.732;2024-02-04T15:47:06;10.90;99.90
14993;DHT22;7592;51.088;13.732;2024-02-04T15:52:00;10.80;99.90
14993;DHT22;7592;51.088;13.732;2024-02-04T15:57:02;10.80;99.90
14993;DHT22;7592;51.088;13.732;2024-02-04T16:01:56;10.60;99.90
14993;DHT22;7592;51.088;13.732;2024-02-04T16:06:49;10.60;99.90
14993;DHT22;7592;51.088;13.732;2024-02-04T16:17:00;10.60;99.90
14993;DHT22;7592;51.088;13.732;2024-02-04T16:21:54;10.50;99.90
14993;DHT22;7592;51.088;13.732;2024-02-04T16:26:48;10.50;99.90
14993;DHT22;7592;51.088;13.732;2024-02-04T16:31:40;10.50;99.90
14993;DHT22;7592;51.088;13.732;2024-02-04T16:36:33;10.50;99.90
14993;DHT22;7592;51.088;13.732;2024-02-04T16:41:25;10.40;99.90
14993;DHT22;7592;51.088;13.732;2024-02-04T16:46:17;10.40;99.90
14993;DHT22;7592;51.088;13.732;2024-02-04T16:51:10;10.40;99.90
14993;DHT22;7592;51.088;13.732;2024-02-04T16:56:02;10.40;99.90
14993;DHT22;7592;51.088;13.732;2024-02-04T17:00:54;10.30;99.90
14993;DHT22;7592;51.088;13.732;2024-02-04T17:05:47;10.30;99.90
14993;DHT22;7592;51.088;13.732;2024-02-04T17:10:47;10.20;99.90
14993;DHT22;7592;51.088;13.732;2024-02-04T17:15:40;10.10;99.90
14993;DHT22;7592;51.088;13.732;2024-02-04T17:20:37;10.00;99.90
14993;DHT22;7592;51.088;13.732;2024-02-04T17:25:38;9.90;99.90
14993;DHT22;7592;51.088;13.732;2024-02-04T17:30:31;9.80;99.90
14993;DHT22;7592;51.088;13.732;2024-02-04T17:35:24;9.80;99.90
14993;DHT22;7592;51.088;13.732;2024-02-04T17:40:18;9.80;99.90
14993;DHT22;7592;51.088;13.732;2024-02-04T17:45:11;9.80;99.90
14993;DHT22;7592;51.088;13.732;2024-02-04T17:50:04;9.80;99.90
14993;DHT22;7592;51.088;13.732;2024-02-04T17:54:58;9.70;99.90
14993;DHT22;7592;51.088;13.732;2024-02-04T17:59:52;9.70;99.90
14993;DHT22;7592;51.088;13.732;2024-02-04T18:04:45;9.70;99.90
14993;DHT22;7592;51.088;13.732;2024-02-04T18:09:38;9.70;99.90
14993;DHT22;7592;51.088;13.732;2024-02-04T18:14:33;9.70;99.90
14993;DHT22;7592;51.088;13.732;2024-02-04T18:19:25;9.70;99.90
14993;DHT22;7592;51.088;13.732;2024-02-04T18:24:17;9.70;99.90
14993;DHT22;7592;51.088;13.732;2024-02-04T18:29:10;9.60;99.90
14993;DHT22;7592;51.088;13.732;2024-02-04T18:34:02;9.70;99.90
14993;DHT22;7592;51.088;13.732;2024-02-04T18:38:57;9.70;99.90
14993;DHT22;7592;51.088;13.732;2024-02-04T18:43:50;9.60;99.90
14993;DHT22;7592;51.088;13.732;2024-02-04T18:48:43;9.60;99.90
14993;DHT22;7592;51.088;13.732;2024-02-04T18:53:36;9.60;99.90
14993;DHT22;7592;51.088;13.732;2024-02-04T18:58:29;9.60;99.90
14993;DHT22;7592;51.088;13.732;2024-02-04T19:03:23;9.60;99.90
14993;DHT22;7592;51.088;13.732;2024-02-04T19:08:15;9.60;99.90
14993;DHT22;7592;51.088;13.732;2024-02-04T19:13:07;9.60;99.90
14993;DHT22;7592;51.088;13.732;2024-02-04T19:18:00;9.50;99.90
14993;DHT22;7592;51.088;13.732;2024-02-04T19:22:54;9.40;99.90
14993;DHT22;7592;51.088;13.732;2024-02-04T19:32:47;9.30;99.90
14993;DHT22;7592;51.088;13.732;2024-02-04T19:37:40;9.30;99.90
14993;DHT22;7592;51.088;13.732;2024-02-04T19:42:32;9.40;99.90
14993;DHT22;7592;51.088;13.732;2024-02-04T19:47:24;9.40;99.90
14993;DHT22;7592;51.088;13.732;2024-02-04T19:52:16;9.40;99.90
14993;DHT22;7592;51.088;13.732;2024-02-04T19:57:08;9.40;99.90
14993;DHT22;7592;51.088;13.732;2024-02-04T20:02:01;9.40;99.90
14993;DHT22;7592;51.088;13.732;2024-02-04T20:06:54;9.50;99.90
14993;DHT22;7592;51.088;13.732;2024-02-04T20:11:46;9.50;99.90
14993;DHT22;7592;51.088;13.732;2024-02-04T20:16:39;9.40;99.90
14993;DHT22;7592;51.088;13.732;2024-02-04T20:21:31;9.50;99.90
14993;DHT22;7592;51.088;13.732;2024-02-04T20:26:23;9.40;99.90
14993;DHT22;7592;51.088;13.732;2024-02-04T20:31:16;9.40;99.90
14993;DHT22;7592;51.088;13.732;2024-02-04T20:36:11;9.40;99.90
14993;DHT22;7592;51.088;13.732;2024-02-04T20:41:03;9.40;99.90
14993;DHT22;7592;51.088;13.732;2024-02-04T20:45:55;9.30;99.90
14993;DHT22;7592;51.088;13.732;2024-02-04T20:50:48;9.30;99.90
14993;DHT22;7592;51.088;13.732;2024-02-04T20:55:40;9.30;99.90
14993;DHT22;7592;51.088;13.732;2024-02-04T21:00:32;9.20;99.90
14993;DHT22;7592;51.088;13.732;2024-02-04T21:05:25;9.20;99.90
14993;DHT22;7592;51.088;13.732;2024-02-04T21:10:19;9.20;99.90
14993;DHT22;7592;51.088;13.732;2024-02-04T21:15:11;9.20;99.90
14993;DHT22;7592;51.088;13.732;2024-02-04T21:20:05;9.20;99.90
14993;DHT22;7592;51.088;13.732;2024-02-04T21:24:57;9.20;99.90
14993;DHT22;7592;51.088;13.732;2024-02-04T21:29:54;9.20;99.90
14993;DHT22;7592;51.088;13.732;2024-02-04T21:34:46;9.30;99.90
14993;DHT22;7592;51.088;13.732;2024-02-04T21:39:39;9.30;99.90
14993;DHT22;7592;51.088;13.732;2024-02-04T21:44:31;9.30;99.90
14993;DHT22;7592;51.088;13.732;2024-02-04T21:49:23;9.30;99.90
14993;DHT22;7592;51.088;13.732;2024-02-04T21:54:15;9.40;99.90
14993;DHT22;7592;51.088;13.732;2024-02-04T21:59:07;9.40;99.90
14993;DHT22;7592;51.088;13.732;2024-02-04T22:03:59;9.40;99.90
14993;DHT22;7592;51.088;13.732;2024-02-04T22:08:52;9.40;99.90
14993;DHT22;7592;51.088;13.732;2024-02-04T22:13:45;9.40;99.90
14993;DHT22;7592;51.088;13.732;2024-02-04T22:18:37;9.50;99.90
14993;DHT22;7592;51.088;13.732;2024-02-04T22:23:29;9.70;99.90
14993;DHT22;7592;51.088;13.732;2024-02-04T22:28:22;9.90;99.90
14993;DHT22;7592;51.088;13.732;2024-02-04T22:33:14;10.10;99.90
14993;DHT22;7592;51.088;13.732;2024-02-04T22:38:06;10.30;99.90
14993;DHT22;7592;51.088;13.732;2024-02-04T22:42:58;10.30;99.90
14993;DHT22;7592;51.088;13.732;2024-02-04T22:47:53;10.40;99.90
14993;DHT22;7592;51.088;13.732;2024-02-04T22:52:46;10.50;99.90
14993;DHT22;7592;51.088;13.732;2024-02-04T22:57:38;10.50;99.90
14993;DHT22;7592;51.088;13.732;2024-02-04T23:02:31;10.60;99.90
14993;DHT22;7592;51.088;13.732;2024-02-04T23:07:23;10.60;99.90
14993;DHT22;7592;51.088;13.732;2024-02-04T23:12:34;10.50;99.90
14993;DHT22;7592;51.088;13.732;2024-02-04T23:17:26;10.60;99.90
14993;DHT22;7592;51.088;13.732;2024-02-04T23:22:18;10.50;99.90
14993;DHT22;7592;51.088;13.732;2024-02-04T23:27:10;10.60;99.90
14993;DHT22;7592;51.088;13.732;2024-02-04T23:32:02;10.60;99.90
14993;DHT22;7592;51.088;13.732;2024-02-04T23:36:55;10.70;99.90
14993;DHT22;7592;51.088;13.732;2024-02-04T23:41:47;10.70;99.90
14993;DHT22;7592;51.088;13.732;2024-02-04T23:46:39;10.70;99.90
14993;DHT22;7592;51.088;13.732;2024-02-04T23:51:31;10.70;99.90
14993;DHT22;7592;51.088;13.732;2024-02-04T23:56:23;10.80;99.90
